sensor_id;sensor_type;location;lat;lon;timestamp;temperature;humidity
69546;SHT31;56766;52.260;20.746;2024-03-23T00:54:14;8.88;89.43
69546;SHT31;56766;52.260;20.746;2024-03-23T00:56:41;8.86;89.53
69546;SHT31;56766;52.260;20.746;2024-03-23T00:59:07;8.85;89.60
69546;SHT31;56766;52.260;20.746;2024-03-23T01:01:34;8.86;89.61
69546;SHT31;56766;52.260;20.746;2024-03-23T01:04:01;8.84;89.67
69546;SHT31;56766;52.260;20.746;2024-03-23T01:06:29;8.84;89.71
69546;SHT31;56766;52.260;20.746;2024-03-23T01:08:55;8.84;89.78
69546;SHT31;56766;52.260;20.746;2024-03-23T01:11:22;8.83;89.81
69546;SHT31;56766;52.260;20.746;2024-03-23T01:13:49;8.83;89.82
69546;SHT31;56766;52.260;20.746;2024-03-23T01:16:15;8.83;89.90
69546;SHT31;56766;52.260;20.746;2024-03-23T01:18:42;8.83;89.95
69546;SHT31;56766;52.260;20.746;2024-03-23T01:21:08;8.83;89.99
69546;SHT31;56766;52.260;20.746;2024-03-23T01:23:35;8.83;90.00
69546;SHT31;56766;52.260;20.746;2024-03-23T01:26:01;8.84;90.06
69546;SHT31;56766;52.260;20.746;2024-03-23T01:28:28;8.84;90.09
69546;SHT31;56766;52.260;20.746;2024-03-23T01:30:55;8.84;90.10
69546;SHT31;56766;52.260;20.746;2024-03-23T01:33:21;8.84;90.10
69546;SHT31;56766;52.260;20.746;2024-03-23T01:35:48;8.85;90.10
69546;SHT31;56766;52.260;20.746;2024-03-23T01:38:15;8.85;90.16
69546;SHT31;56766;52.260;20.746;2024-03-23T01:40:41;8.85;90.19
69546;SHT31;56766;52.260;20.746;2024-03-23T01:43:08;8.85;90.20
69546;SHT31;56766;52.260;20.746;2024-03-23T01:45:35;8.85;90.29
69546;SHT31;56766;52.260;20.746;2024-03-23T01:48:03;8.84;90.30
69546;SHT31;56766;52.260;20.746;2024-03-23T01:50:31;8.84;90.32
69546;SHT31;56766;52.260;20.746;2024-03-23T01:53:02;8.85;90.40
69546;SHT31;56766;52.260;20.746;2024-03-23T01:55:32;8.86;90.39
69546;SHT31;56766;52.260;20.746;2024-03-23T01:57:59;8.85;90.42
69546;SHT31;56766;52.260;20.746;2024-03-23T02:00:26;8.85;90.46
69546;SHT31;56766;52.260;20.746;2024-03-23T02:02:54;8.85;90.50
69546;SHT31;56766;52.260;20.746;2024-03-23T02:05:22;8.85;90.51
69546;SHT31;56766;52.260;20.746;2024-03-23T02:07:50;8.85;90.59
69546;SHT31;56766;52.260;20.746;2024-03-23T02:10:17;8.86;90.61
69546;SHT31;56766;52.260;20.746;2024-03-23T02:12:44;8.88;90.62
69546;SHT31;56766;52.260;20.746;2024-03-23T02:15:10;8.88;90.62
69546;SHT31;56766;52.260;20.746;2024-03-23T02:17:37;8.90;90.63
69546;SHT31;56766;52.260;20.746;2024-03-23T02:20:04;8.91;90.68
69546;SHT31;56766;52.260;20.746;2024-03-23T02:22:39;8.90;90.70
69546;SHT31;56766;52.260;20.746;2024-03-23T02:25:06;8.91;90.72
69546;SHT31;56766;52.260;20.746;2024-03-23T02:27:33;8.91;90.74
69546;SHT31;56766;52.260;20.746;2024-03-23T02:30:05;8.92;90.80
69546;SHT31;56766;52.260;20.746;2024-03-23T02:32:33;8.93;90.84
69546;SHT31;56766;52.260;20.746;2024-03-23T02:34:59;8.93;90.88
69546;SHT31;56766;52.260;20.746;2024-03-23T02:37:26;8.93;90.89
69546;SHT31;56766;52.260;20.746;2024-03-23T02:39:53;8.93;90.89
69546;SHT31;56766;52.260;20.746;2024-03-23T02:42:19;8.94;90.93
69546;SHT31;56766;52.260;20.746;2024-03-23T02:44:46;8.95;90.96
69546;SHT31;56766;52.260;20.746;2024-03-23T02:47:13;8.94;91.00
69546;SHT31;56766;52.260;20.746;2024-03-23T02:49:39;8.96;91.00
69546;SHT31;56766;52.260;20.746;2024-03-23T02:52:06;8.96;91.02
69546;SHT31;56766;52.260;20.746;2024-03-23T02:54:33;8.97;91.06
69546;SHT31;56766;52.260;20.746;2024-03-23T02:56:59;8.98;91.06
69546;SHT31;56766;52.260;20.746;2024-03-23T02:59:26;8.98;91.09
69546;SHT31;56766;52.260;20.746;2024-03-23T03:01:52;8.99;91.10
69546;SHT31;56766;52.260;20.746;2024-03-23T03:04:19;8.99;91.11
69546;SHT31;56766;52.260;20.746;2024-03-23T03:06:48;8.99;91.18
69546;SHT31;56766;52.260;20.746;2024-03-23T03:09:15;9.00;91.20
69546;SHT31;56766;52.260;20.746;2024-03-23T03:11:42;9.01;91.20
69546;SHT31;56766;52.260;20.746;2024-03-23T03:14:08;9.02;91.20
69546;SHT31;56766;52.260;20.746;2024-03-23T03:16:35;9.02;91.21
69546;SHT31;56766;52.260;20.746;2024-03-23T03:19:01;9.02;91.22
69546;SHT31;56766;52.260;20.746;2024-03-23T03:21:28;9.03;91.27
69546;SHT31;56766;52.260;20.746;2024-03-23T03:23:55;9.03;91.30
69546;SHT31;56766;52.260;20.746;2024-03-23T03:26:23;9.04;91.30
69546;SHT31;56766;52.260;20.746;2024-03-23T03:28:50;9.04;91.31
69546;SHT31;56766;52.260;20.746;2024-03-23T03:31:17;9.05;91.39
69546;SHT31;56766;52.260;20.746;2024-03-23T03:33:44;9.06;91.39
69546;SHT31;56766;52.260;20.746;2024-03-23T03:36:11;9.07;91.40
69546;SHT31;56766;52.260;20.746;2024-03-23T03:38:38;9.07;91.40
69546;SHT31;56766;52.260;20.746;2024-03-23T03:41:04;9.07;91.41
69546;SHT31;56766;52.260;20.746;2024-03-23T03:43:32;9.09;91.49
69546;SHT31;56766;52.260;20.746;2024-03-23T03:46:00;9.09;91.49
69546;SHT31;56766;52.260;20.746;2024-03-23T03:48:28;9.10;91.50
69546;SHT31;56766;52.260;20.746;2024-03-23T03:50:55;9.11;91.50
69546;SHT31;56766;52.260;20.746;2024-03-23T03:53:22;9.12;91.52
69546;SHT31;56766;52.260;20.746;2024-03-23T03:55:48;9.12;91.54
69546;SHT31;56766;52.260;20.746;2024-03-23T03:58:15;9.12;91.56
69546;SHT31;56766;52.260;20.746;2024-03-23T04:00:42;9.13;91.59
69546;SHT31;56766;52.260;20.746;2024-03-23T04:03:08;9.13;91.57
69546;SHT31;56766;52.260;20.746;2024-03-23T04:05:35;9.14;91.58
69546;SHT31;56766;52.260;20.746;2024-03-23T04:08:02;9.15;91.60
69546;SHT31;56766;52.260;20.746;2024-03-23T04:10:28;9.15;91.60
69546;SHT31;56766;52.260;20.746;2024-03-23T04:12:55;9.16;91.60
69546;SHT31;56766;52.260;20.746;2024-03-23T04:15:22;9.16;91.60
69546;SHT31;56766;52.260;20.746;2024-03-23T04:17:49;9.15;91.60
69546;SHT31;56766;52.260;20.746;2024-03-23T04:20:16;9.17;91.60
69546;SHT31;56766;52.260;20.746;2024-03-23T04:22:43;9.19;91.60
69546;SHT31;56766;52.260;20.746;2024-03-23T04:25:11;9.19;91.60
69546;SHT31;56766;52.260;20.746;2024-03-23T04:27:37;9.19;91.60
69546;SHT31;56766;52.260;20.746;2024-03-23T04:30:06;9.20;91.60
69546;SHT31;56766;52.260;20.746;2024-03-23T04:32:37;9.21;91.60
69546;SHT31;56766;52.260;20.746;2024-03-23T04:35:05;9.21;91.60
69546;SHT31;56766;52.260;20.746;2024-03-23T04:37:35;9.22;91.60
69546;SHT31;56766;52.260;20.746;2024-03-23T04:40:08;9.23;91.60
69546;SHT31;56766;52.260;20.746;2024-03-23T04:42:35;9.22;91.60
69546;SHT31;56766;52.260;20.746;2024-03-23T04:45:02;9.22;91.60
69546;SHT31;56766;52.260;20.746;2024-03-23T04:47:30;9.22;91.63
69546;SHT31;56766;52.260;20.746;2024-03-23T04:49:56;9.21;91.69
69546;SHT31;56766;52.260;20.746;2024-03-23T04:52:23;9.21;91.70
69546;SHT31;56766;52.260;20.746;2024-03-23T04:54:50;9.22;91.70
69546;SHT31;56766;52.260;20.746;2024-03-23T04:57:16;9.21;91.70
69546;SHT31;56766;52.260;20.746;2024-03-23T04:59:43;9.22;91.71
69546;SHT31;56766;52.260;20.746;2024-03-23T05:02:09;9.22;91.73
69546;SHT31;56766;52.260;20.746;2024-03-23T05:04:36;9.21;91.75
69546;SHT31;56766;52.260;20.746;2024-03-23T05:07:03;9.20;91.80
69546;SHT31;56766;52.260;20.746;2024-03-23T05:09:30;9.19;91.80
69546;SHT31;56766;52.260;20.746;2024-03-23T05:12:02;9.21;91.81
69546;SHT31;56766;52.260;20.746;2024-03-23T05:14:29;9.21;91.85
69546;SHT31;56766;52.260;20.746;2024-03-23T05:16:56;9.23;91.85
69546;SHT31;56766;52.260;20.746;2024-03-23T05:19:22;9.23;91.86
69546;SHT31;56766;52.260;20.746;2024-03-23T05:21:49;9.22;91.84
69546;SHT31;56766;52.260;20.746;2024-03-23T05:24:15;9.23;91.86
69546;SHT31;56766;52.260;20.746;2024-03-23T05:26:42;9.24;91.86
69546;SHT31;56766;52.260;20.746;2024-03-23T05:29:09;9.24;91.89
69546;SHT31;56766;52.260;20.746;2024-03-23T05:31:39;9.24;91.89
69546;SHT31;56766;52.260;20.746;2024-03-23T05:34:09;9.26;91.89
69546;SHT31;56766;52.260;20.746;2024-03-23T05:36:35;9.26;91.90
69546;SHT31;56766;52.260;20.746;2024-03-23T05:39:03;9.27;91.90
69546;SHT31;56766;52.260;20.746;2024-03-23T05:41:30;9.28;91.90
69546;SHT31;56766;52.260;20.746;2024-03-23T05:43:56;9.28;91.90
69546;SHT31;56766;52.260;20.746;2024-03-23T05:46:23;9.29;91.88
69546;SHT31;56766;52.260;20.746;2024-03-23T05:48:50;9.30;91.89
69546;SHT31;56766;52.260;20.746;2024-03-23T05:51:17;9.30;91.89
69546;SHT31;56766;52.260;20.746;2024-03-23T05:53:45;9.32;91.89
69546;SHT31;56766;52.260;20.746;2024-03-23T05:56:11;9.33;91.89
69546;SHT31;56766;52.260;20.746;2024-03-23T05:58:38;9.34;91.90
69546;SHT31;56766;52.260;20.746;2024-03-23T06:01:04;9.37;91.90
69546;SHT31;56766;52.260;20.746;2024-03-23T06:03:31;9.40;91.90
69546;SHT31;56766;52.260;20.746;2024-03-23T06:05:58;9.41;91.90
69546;SHT31;56766;52.260;20.746;2024-03-23T06:08:24;9.42;91.90
69546;SHT31;56766;52.260;20.746;2024-03-23T06:10:51;9.42;91.90
69546;SHT31;56766;52.260;20.746;2024-03-23T06:13:18;9.43;91.90
69546;SHT31;56766;52.260;20.746;2024-03-23T06:15:44;9.44;91.90
69546;SHT31;56766;52.260;20.746;2024-03-23T06:18:12;9.47;91.90
69546;SHT31;56766;52.260;20.746;2024-03-23T06:20:39;9.48;91.87
69546;SHT31;56766;52.260;20.746;2024-03-23T06:23:06;9.50;91.90
69546;SHT31;56766;52.260;20.746;2024-03-23T06:25:32;9.52;91.88
69546;SHT31;56766;52.260;20.746;2024-03-23T06:27:59;9.53;91.82
69546;SHT31;56766;52.260;20.746;2024-03-23T06:30:27;9.56;91.82
69546;SHT31;56766;52.260;20.746;2024-03-23T06:32:55;9.57;91.80
69546;SHT31;56766;52.260;20.746;2024-03-23T06:35:22;9.56;91.79
69546;SHT31;56766;52.260;20.746;2024-03-23T06:37:49;9.55;91.78
69546;SHT31;56766;52.260;20.746;2024-03-23T06:40:15;9.56;91.82
69546;SHT31;56766;52.260;20.746;2024-03-23T06:42:42;9.60;91.81
69546;SHT31;56766;52.260;20.746;2024-03-23T06:45:09;9.62;91.81
69546;SHT31;56766;52.260;20.746;2024-03-23T06:47:36;9.63;91.80
69546;SHT31;56766;52.260;20.746;2024-03-23T06:50:03;9.65;91.75
69546;SHT31;56766;52.260;20.746;2024-03-23T06:52:30;9.65;91.70
69546;SHT31;56766;52.260;20.746;2024-03-23T06:54:57;9.65;91.70
69546;SHT31;56766;52.260;20.746;2024-03-23T06:57:25;9.65;91.70
69546;SHT31;56766;52.260;20.746;2024-03-23T06:59:51;9.66;91.70
69546;SHT31;56766;52.260;20.746;2024-03-23T07:02:18;9.68;91.69
69546;SHT31;56766;52.260;20.746;2024-03-23T07:04:45;9.68;91.66
69546;SHT31;56766;52.260;20.746;2024-03-23T07:07:11;9.70;91.63
69546;SHT31;56766;52.260;20.746;2024-03-23T07:09:38;9.71;91.69
69546;SHT31;56766;52.260;20.746;2024-03-23T07:12:05;9.72;91.61
69546;SHT31;56766;52.260;20.746;2024-03-23T07:14:32;9.71;91.60
69546;SHT31;56766;52.260;20.746;2024-03-23T07:16:59;9.73;91.60
69546;SHT31;56766;52.260;20.746;2024-03-23T07:19:25;9.73;91.60
69546;SHT31;56766;52.260;20.746;2024-03-23T07:21:52;9.74;91.61
69546;SHT31;56766;52.260;20.746;2024-03-23T07:24:18;9.73;91.60
69546;SHT31;56766;52.260;20.746;2024-03-23T07:26:45;9.73;91.63
69546;SHT31;56766;52.260;20.746;2024-03-23T07:29:12;9.72;91.69
69546;SHT31;56766;52.260;20.746;2024-03-23T07:31:39;9.72;91.70
69546;SHT31;56766;52.260;20.746;2024-03-23T07:34:05;9.73;91.70
69546;SHT31;56766;52.260;20.746;2024-03-23T07:36:32;9.74;91.70
69546;SHT31;56766;52.260;20.746;2024-03-23T07:38:58;9.76;91.70
69546;SHT31;56766;52.260;20.746;2024-03-23T07:41:25;9.79;91.70
69546;SHT31;56766;52.260;20.746;2024-03-23T07:43:53;9.82;91.70
69546;SHT31;56766;52.260;20.746;2024-03-23T07:46:20;9.87;91.70
69546;SHT31;56766;52.260;20.746;2024-03-23T07:48:47;9.94;91.72
69546;SHT31;56766;52.260;20.746;2024-03-23T07:51:20;9.99;91.70
69546;SHT31;56766;52.260;20.746;2024-03-23T07:53:48;10.05;91.70
69546;SHT31;56766;52.260;20.746;2024-03-23T07:56:16;10.08;91.67
69546;SHT31;56766;52.260;20.746;2024-03-23T07:58:45;10.11;91.61
69546;SHT31;56766;52.260;20.746;2024-03-23T08:01:13;10.15;91.60
69546;SHT31;56766;52.260;20.746;2024-03-23T08:03:44;10.20;91.59
69546;SHT31;56766;52.260;20.746;2024-03-23T08:06:14;10.21;91.52
69546;SHT31;56766;52.260;20.746;2024-03-23T08:08:43;10.24;91.50
69546;SHT31;56766;52.260;20.746;2024-03-23T08:11:12;10.27;91.50
69546;SHT31;56766;52.260;20.746;2024-03-23T08:13:40;10.35;91.51
69546;SHT31;56766;52.260;20.746;2024-03-23T08:16:08;10.45;91.52
69546;SHT31;56766;52.260;20.746;2024-03-23T08:18:35;10.50;91.44
69546;SHT31;56766;52.260;20.746;2024-03-23T08:21:04;10.60;91.39
69546;SHT31;56766;52.260;20.746;2024-03-23T08:23:33;10.77;91.39
69546;SHT31;56766;52.260;20.746;2024-03-23T08:26:04;11.03;91.41
69546;SHT31;56766;52.260;20.746;2024-03-23T08:28:32;11.31;91.36
69546;SHT31;56766;52.260;20.746;2024-03-23T08:31:05;11.65;91.27
69546;SHT31;56766;52.260;20.746;2024-03-23T08:33:33;12.00;91.16
69546;SHT31;56766;52.260;20.746;2024-03-23T08:36:05;12.42;91.06
69546;SHT31;56766;52.260;20.746;2024-03-23T08:38:35;12.73;90.55
69546;SHT31;56766;52.260;20.746;2024-03-23T08:41:09;12.93;90.07
69546;SHT31;56766;52.260;20.746;2024-03-23T08:43:39;13.06;89.67
69546;SHT31;56766;52.260;20.746;2024-03-23T08:48:38;13.31;89.09
69546;SHT31;56766;52.260;20.746;2024-03-23T08:51:08;13.49;88.90
69546;SHT31;56766;52.260;20.746;2024-03-23T08:53:36;13.77;88.85
69546;SHT31;56766;52.260;20.746;2024-03-23T08:56:05;14.08;88.53
69546;SHT31;56766;52.260;20.746;2024-03-23T08:58:33;14.37;88.01
69546;SHT31;56766;52.260;20.746;2024-03-23T09:01:07;14.56;87.28
69546;SHT31;56766;52.260;20.746;2024-03-23T09:03:36;14.69;86.81
69546;SHT31;56766;52.260;20.746;2024-03-23T09:06:12;14.83;86.44
69546;SHT31;56766;52.260;20.746;2024-03-23T09:08:40;14.83;85.94
69546;SHT31;56766;52.260;20.746;2024-03-23T09:11:12;14.76;85.69
69546;SHT31;56766;52.260;20.746;2024-03-23T09:13:40;14.75;85.82
69546;SHT31;56766;52.260;20.746;2024-03-23T09:16:08;14.73;85.41
69546;SHT31;56766;52.260;20.746;2024-03-23T09:18:36;14.65;84.99
69546;SHT31;56766;52.260;20.746;2024-03-23T09:21:09;14.59;85.00
69546;SHT31;56766;52.260;20.746;2024-03-23T09:23:38;14.46;84.85
69546;SHT31;56766;52.260;20.746;2024-03-23T09:26:05;14.29;84.82
69546;SHT31;56766;52.260;20.746;2024-03-23T09:28:33;14.12;84.69
69546;SHT31;56766;52.260;20.746;2024-03-23T09:31:07;13.96;84.64
69546;SHT31;56766;52.260;20.746;2024-03-23T09:33:36;13.85;84.53
69546;SHT31;56766;52.260;20.746;2024-03-23T09:36:04;13.84;84.93
69546;SHT31;56766;52.260;20.746;2024-03-23T09:38:32;13.90;84.89
69546;SHT31;56766;52.260;20.746;2024-03-23T09:40:59;14.02;84.82
69546;SHT31;56766;52.260;20.746;2024-03-23T09:43:26;14.19;84.71
69546;SHT31;56766;52.260;20.746;2024-03-23T09:45:53;14.46;85.06
69546;SHT31;56766;52.260;20.746;2024-03-23T09:48:20;14.70;84.97
69546;SHT31;56766;52.260;20.746;2024-03-23T09:50:46;15.02;84.68
69546;SHT31;56766;52.260;20.746;2024-03-23T09:53:15;15.34;84.44
69546;SHT31;56766;52.260;20.746;2024-03-23T09:55:44;15.54;83.79
69546;SHT31;56766;52.260;20.746;2024-03-23T09:58:16;15.73;83.81
69546;SHT31;56766;52.260;20.746;2024-03-23T10:00:45;15.82;82.96
69546;SHT31;56766;52.260;20.746;2024-03-23T10:03:12;15.94;82.74
69546;SHT31;56766;52.260;20.746;2024-03-23T10:05:39;16.08;82.81
69546;SHT31;56766;52.260;20.746;2024-03-23T10:10:46;16.25;82.44
69546;SHT31;56766;52.260;20.746;2024-03-23T10:13:27;16.38;82.12
69546;SHT31;56766;52.260;20.746;2024-03-23T10:15:57;16.53;81.74
69546;SHT31;56766;52.260;20.746;2024-03-23T10:18:26;16.65;81.59
69546;SHT31;56766;52.260;20.746;2024-03-23T10:21:09;16.77;81.44
69546;SHT31;56766;52.260;20.746;2024-03-23T10:23:42;16.90;81.25
69546;SHT31;56766;52.260;20.746;2024-03-23T10:29:02;17.15;80.33
69546;SHT31;56766;52.260;20.746;2024-03-23T10:31:34;17.23;80.38
69546;SHT31;56766;52.260;20.746;2024-03-23T10:34:04;17.31;79.79
69546;SHT31;56766;52.260;20.746;2024-03-23T10:36:30;17.36;79.25
69546;SHT31;56766;52.260;20.746;2024-03-23T10:38:57;17.45;79.50
69546;SHT31;56766;52.260;20.746;2024-03-23T10:41:36;17.55;79.07
69546;SHT31;56766;52.260;20.746;2024-03-23T10:44:05;17.62;79.12
69546;SHT31;56766;52.260;20.746;2024-03-23T10:46:33;17.61;78.58
69546;SHT31;56766;52.260;20.746;2024-03-23T10:48:59;17.64;78.44
69546;SHT31;56766;52.260;20.746;2024-03-23T10:51:26;17.73;78.58
69546;SHT31;56766;52.260;20.746;2024-03-23T10:53:55;17.76;77.77
69546;SHT31;56766;52.260;20.746;2024-03-23T10:56:23;17.78;77.40
69546;SHT31;56766;52.260;20.746;2024-03-23T10:58:51;17.78;77.13
69546;SHT31;56766;52.260;20.746;2024-03-23T11:01:20;17.81;77.16
69546;SHT31;56766;52.260;20.746;2024-03-23T11:03:47;17.85;76.83
69546;SHT31;56766;52.260;20.746;2024-03-23T11:06:38;17.89;76.39
69546;SHT31;56766;52.260;20.746;2024-03-23T11:09:42;17.96;76.62
69546;SHT31;56766;52.260;20.746;2024-03-23T11:12:25;18.03;75.69
69546;SHT31;56766;52.260;20.746;2024-03-23T11:15:11;18.09;75.95
69546;SHT31;56766;52.260;20.746;2024-03-23T11:17:38;18.16;75.44
69546;SHT31;56766;52.260;20.746;2024-03-23T11:20:06;18.24;75.21
69546;SHT31;56766;52.260;20.746;2024-03-23T11:22:40;18.36;74.20
69546;SHT31;56766;52.260;20.746;2024-03-23T11:25:22;18.46;73.55
69546;SHT31;56766;52.260;20.746;2024-03-23T11:27:54;18.59;73.95
69546;SHT31;56766;52.260;20.746;2024-03-23T11:30:28;18.79;73.84
69546;SHT31;56766;52.260;20.746;2024-03-23T11:32:57;18.70;73.04
69546;SHT31;56766;52.260;20.746;2024-03-23T11:38:03;18.26;73.42
69546;SHT31;56766;52.260;20.746;2024-03-23T11:40:34;18.07;72.60
69546;SHT31;56766;52.260;20.746;2024-03-23T11:43:16;17.91;73.03
69546;SHT31;56766;52.260;20.746;2024-03-23T11:45:51;17.86;73.09
69546;SHT31;56766;52.260;20.746;2024-03-23T11:48:21;17.72;72.16
69546;SHT31;56766;52.260;20.746;2024-03-23T11:50:54;17.54;72.68
69546;SHT31;56766;52.260;20.746;2024-03-23T11:53:25;17.38;72.42
69546;SHT31;56766;52.260;20.746;2024-03-23T11:55:58;17.25;72.08
69546;SHT31;56766;52.260;20.746;2024-03-23T11:58:27;17.39;72.36
69546;SHT31;56766;52.260;20.746;2024-03-23T12:01:01;17.67;72.56
69546;SHT31;56766;52.260;20.746;2024-03-23T12:03:30;17.79;71.27
69546;SHT31;56766;52.260;20.746;2024-03-23T12:06:04;17.90;71.74
69546;SHT31;56766;52.260;20.746;2024-03-23T12:08:33;17.96;70.55
69546;SHT31;56766;52.260;20.746;2024-03-23T12:11:17;17.91;70.21
69546;SHT31;56766;52.260;20.746;2024-03-23T12:13:45;17.87;69.89
69546;SHT31;56766;52.260;20.746;2024-03-23T12:16:14;17.75;69.78
69546;SHT31;56766;52.260;20.746;2024-03-23T12:18:44;17.64;69.56
69546;SHT31;56766;52.260;20.746;2024-03-23T12:21:11;17.55;68.95
69546;SHT31;56766;52.260;20.746;2024-03-23T12:23:41;17.45;69.23
69546;SHT31;56766;52.260;20.746;2024-03-23T12:26:11;17.33;69.02
69546;SHT31;56766;52.260;20.746;2024-03-23T12:28:38;17.31;69.19
69546;SHT31;56766;52.260;20.746;2024-03-23T12:31:05;17.56;69.65
69546;SHT31;56766;52.260;20.746;2024-03-23T12:33:32;17.79;70.30
69546;SHT31;56766;52.260;20.746;2024-03-23T12:35:59;17.83;69.74
69546;SHT31;56766;52.260;20.746;2024-03-23T12:38:26;17.80;69.23
69546;SHT31;56766;52.260;20.746;2024-03-23T12:40:52;17.68;69.46
69546;SHT31;56766;52.260;20.746;2024-03-23T12:43:19;17.52;69.83
69546;SHT31;56766;52.260;20.746;2024-03-23T12:45:49;17.37;70.00
69546;SHT31;56766;52.260;20.746;2024-03-23T12:48:16;17.24;70.24
69546;SHT31;56766;52.260;20.746;2024-03-23T12:50:43;17.15;70.38
69546;SHT31;56766;52.260;20.746;2024-03-23T12:53:10;17.00;70.54
69546;SHT31;56766;52.260;20.746;2024-03-23T12:55:37;16.88;70.77
69546;SHT31;56766;52.260;20.746;2024-03-23T12:58:04;16.75;70.73
69546;SHT31;56766;52.260;20.746;2024-03-23T13:00:31;16.69;71.82
69546;SHT31;56766;52.260;20.746;2024-03-23T13:02:57;16.66;71.84
69546;SHT31;56766;52.260;20.746;2024-03-23T13:05:24;16.67;71.62
69546;SHT31;56766;52.260;20.746;2024-03-23T13:07:51;16.69;71.81
69546;SHT31;56766;52.260;20.746;2024-03-23T13:10:17;16.68;71.61
69546;SHT31;56766;52.260;20.746;2024-03-23T13:12:44;16.66;71.83
69546;SHT31;56766;52.260;20.746;2024-03-23T13:15:11;16.59;72.04
69546;SHT31;56766;52.260;20.746;2024-03-23T13:17:37;16.49;72.06
69546;SHT31;56766;52.260;20.746;2024-03-23T13:20:04;16.37;72.95
69546;SHT31;56766;52.260;20.746;2024-03-23T13:22:32;16.25;72.88
69546;SHT31;56766;52.260;20.746;2024-03-23T13:24:58;16.11;72.87
69546;SHT31;56766;52.260;20.746;2024-03-23T13:27:26;16.02;73.08
69546;SHT31;56766;52.260;20.746;2024-03-23T13:29:52;15.95;73.62
69546;SHT31;56766;52.260;20.746;2024-03-23T13:32:19;15.91;73.70
69546;SHT31;56766;52.260;20.746;2024-03-23T13:34:45;15.83;73.26
69546;SHT31;56766;52.260;20.746;2024-03-23T13:37:16;15.76;73.14
69546;SHT31;56766;52.260;20.746;2024-03-23T13:39:43;15.67;73.25
69546;SHT31;56766;52.260;20.746;2024-03-23T13:42:09;15.59;73.61
69546;SHT31;56766;52.260;20.746;2024-03-23T13:44:38;15.48;74.53
69546;SHT31;56766;52.260;20.746;2024-03-23T13:47:05;15.39;75.31
69546;SHT31;56766;52.260;20.746;2024-03-23T13:49:31;15.30;75.39
69546;SHT31;56766;52.260;20.746;2024-03-23T13:52:01;15.22;75.68
69546;SHT31;56766;52.260;20.746;2024-03-23T13:54:28;15.10;76.18
69546;SHT31;56766;52.260;20.746;2024-03-23T13:56:55;14.98;76.73
69546;SHT31;56766;52.260;20.746;2024-03-23T13:59:23;14.89;76.78
69546;SHT31;56766;52.260;20.746;2024-03-23T14:01:51;14.81;77.04
69546;SHT31;56766;52.260;20.746;2024-03-23T14:04:18;14.76;77.43
69546;SHT31;56766;52.260;20.746;2024-03-23T14:06:47;14.72;77.71
69546;SHT31;56766;52.260;20.746;2024-03-23T14:09:14;14.66;76.82
69546;SHT31;56766;52.260;20.746;2024-03-23T14:11:44;14.62;76.24
69546;SHT31;56766;52.260;20.746;2024-03-23T14:14:11;14.61;76.20
69546;SHT31;56766;52.260;20.746;2024-03-23T14:16:38;14.59;75.83
69546;SHT31;56766;52.260;20.746;2024-03-23T14:19:05;14.56;75.77
69546;SHT31;56766;52.260;20.746;2024-03-23T14:21:32;14.51;75.28
69546;SHT31;56766;52.260;20.746;2024-03-23T14:24:01;14.50;74.96
69546;SHT31;56766;52.260;20.746;2024-03-23T14:26:28;14.47;75.19
69546;SHT31;56766;52.260;20.746;2024-03-23T14:28:55;14.44;75.09
69546;SHT31;56766;52.260;20.746;2024-03-23T14:31:22;14.40;75.32
69546;SHT31;56766;52.260;20.746;2024-03-23T14:33:51;14.35;75.51
69546;SHT31;56766;52.260;20.746;2024-03-23T14:36:18;14.29;75.68
69546;SHT31;56766;52.260;20.746;2024-03-23T14:38:49;14.22;76.14
69546;SHT31;56766;52.260;20.746;2024-03-23T14:41:16;14.11;76.70
69546;SHT31;56766;52.260;20.746;2024-03-23T14:43:43;13.98;76.86
69546;SHT31;56766;52.260;20.746;2024-03-23T14:46:12;13.87;78.08
69546;SHT31;56766;52.260;20.746;2024-03-23T14:48:44;13.74;78.81
69546;SHT31;56766;52.260;20.746;2024-03-23T14:51:12;13.64;79.20
69546;SHT31;56766;52.260;20.746;2024-03-23T14:53:40;13.55;79.84
69546;SHT31;56766;52.260;20.746;2024-03-23T14:56:14;13.35;80.80
69546;SHT31;56766;52.260;20.746;2024-03-23T14:58:42;13.14;81.32
69546;SHT31;56766;52.260;20.746;2024-03-23T15:01:09;12.95;82.26
69546;SHT31;56766;52.260;20.746;2024-03-23T15:03:40;12.74;82.71
69546;SHT31;56766;52.260;20.746;2024-03-23T15:06:10;12.56;82.97
69546;SHT31;56766;52.260;20.746;2024-03-23T15:08:37;12.43;83.31
69546;SHT31;56766;52.260;20.746;2024-03-23T15:11:06;12.31;83.64
69546;SHT31;56766;52.260;20.746;2024-03-23T15:13:34;12.22;83.84
69546;SHT31;56766;52.260;20.746;2024-03-23T15:16:03;12.15;84.07
69546;SHT31;56766;52.260;20.746;2024-03-23T15:18:31;12.07;84.27
69546;SHT31;56766;52.260;20.746;2024-03-23T15:21:00;12.02;84.48
69546;SHT31;56766;52.260;20.746;2024-03-23T15:23:35;11.98;84.74
69546;SHT31;56766;52.260;20.746;2024-03-23T15:26:03;11.92;84.98
69546;SHT31;56766;52.260;20.746;2024-03-23T15:28:32;11.87;85.14
69546;SHT31;56766;52.260;20.746;2024-03-23T15:31:08;11.82;85.28
69546;SHT31;56766;52.260;20.746;2024-03-23T15:33:38;11.77;85.49
69546;SHT31;56766;52.260;20.746;2024-03-23T15:36:06;11.71;85.65
69546;SHT31;56766;52.260;20.746;2024-03-23T15:38:33;11.66;85.84
69546;SHT31;56766;52.260;20.746;2024-03-23T15:41:01;11.60;85.98
69546;SHT31;56766;52.260;20.746;2024-03-23T15:43:31;11.55;86.10
69546;SHT31;56766;52.260;20.746;2024-03-23T15:46:00;11.49;86.26
69546;SHT31;56766;52.260;20.746;2024-03-23T15:48:30;11.44;86.45
69546;SHT31;56766;52.260;20.746;2024-03-23T15:51:03;11.41;86.56
69546;SHT31;56766;52.260;20.746;2024-03-23T15:53:30;11.40;86.76
69546;SHT31;56766;52.260;20.746;2024-03-23T15:56:03;11.36;86.83
69546;SHT31;56766;52.260;20.746;2024-03-23T15:58:32;11.33;86.92
69546;SHT31;56766;52.260;20.746;2024-03-23T16:01:03;11.31;87.07
69546;SHT31;56766;52.260;20.746;2024-03-23T16:03:33;11.28;87.17
69546;SHT31;56766;52.260;20.746;2024-03-23T16:06:02;11.25;87.20
69546;SHT31;56766;52.260;20.746;2024-03-23T16:08:31;11.23;87.29
69546;SHT31;56766;52.260;20.746;2024-03-23T16:11:03;11.24;87.41
69546;SHT31;56766;52.260;20.746;2024-03-23T16:13:32;11.22;87.52
69546;SHT31;56766;52.260;20.746;2024-03-23T16:16:01;11.20;87.64
69546;SHT31;56766;52.260;20.746;2024-03-23T16:18:30;11.19;87.69
69546;SHT31;56766;52.260;20.746;2024-03-23T16:21:00;11.19;87.71
69546;SHT31;56766;52.260;20.746;2024-03-23T16:23:36;11.18;87.80
69546;SHT31;56766;52.260;20.746;2024-03-23T16:26:04;11.16;87.85
69546;SHT31;56766;52.260;20.746;2024-03-23T16:28:32;11.15;87.94
69546;SHT31;56766;52.260;20.746;2024-03-23T16:31:07;11.13;88.00
69546;SHT31;56766;52.260;20.746;2024-03-23T16:33:37;11.11;88.03